createdAt,value
2022-08-08T00:00:52.902Z,89.25
2022-08-08T00:10:35.277Z,88.95
2022-08-08T00:20:36.903Z,89.90
2022-08-08T00:30:34.646Z,91.05
2022-08-08T00:41:11.039Z,90.34
2022-08-08T00:50:36.180Z,89.43
2022-08-08T01:00:37.935Z,89.64
2022-08-08T01:10:35.521Z,89.13
2022-08-08T01:20:35.633Z,89.37
2022-08-08T01:30:35.944Z,89.48
2022-08-08T01:40:36.097Z,89.58
2022-08-08T01:50:36.600Z,89.42
2022-08-08T02:00:36.517Z,91.18
2022-08-08T02:10:37.071Z,91.44
2022-08-08T02:21:01.104Z,91.58
2022-08-08T02:30:37.782Z,92.13
2022-08-08T02:40:38.168Z,91.93
2022-08-08T02:50:37.352Z,92.54
2022-08-08T03:00:37.464Z,92.64
2022-08-08T03:10:44.318Z,92.64
2022-08-08T03:20:38.658Z,92.03
2022-08-08T03:30:37.839Z,92.03
2022-08-08T03:40:38.325Z,92.44
2022-08-08T03:50:38.652Z,92.33
2022-08-08T04:00:56.463Z,93.15
2022-08-08T04:10:39.329Z,93.29
2022-08-08T04:20:38.617Z,92.99
2022-08-08T04:30:44.460Z,93.19
2022-08-08T04:40:39.885Z,93.08
2022-08-08T04:50:46.061Z,93.30
2022-08-08T05:00:40.150Z,93.20
2022-08-08T05:10:39.286Z,93.71
2022-08-08T05:20:48.339Z,93.05
2022-08-08T05:30:40.475Z,93.26
2022-08-08T05:40:40.750Z,93.52
2022-08-08T05:50:44.576Z,92.91
2022-08-08T06:00:40.133Z,93.07
2022-08-08T06:10:40.844Z,93.23
2022-08-08T06:20:40.511Z,92.47
2022-08-08T06:30:40.553Z,91.73
2022-08-08T06:40:40.755Z,90.68
2022-08-08T06:50:41.826Z,89.93
2022-08-08T07:00:41.292Z,87.93
2022-08-08T07:10:45.992Z,85.64
2022-08-08T07:20:50.577Z,84.59
2022-08-08T07:30:42.370Z,84.05
2022-08-08T07:40:41.639Z,83.47
2022-08-08T07:50:41.588Z,82.76
2022-08-08T08:00:41.819Z,81.29
2022-08-08T08:10:41.790Z,80.30
2022-08-08T08:20:42.109Z,76.49
2022-08-08T08:30:55.377Z,76.56
2022-08-08T08:40:42.554Z,73.45
2022-08-08T08:50:43.615Z,72.02
2022-08-08T09:01:03.150Z,70.65
2022-08-08T09:10:44.005Z,68.96
2022-08-08T09:22:02.957Z,67.24
2022-08-08T09:30:44.823Z,66.01
2022-08-08T09:40:46.559Z,65.42
2022-08-08T09:50:50.126Z,67.21
2022-08-08T10:00:53.376Z,64.23
2022-08-08T10:10:50.910Z,65.35
2022-08-08T10:20:51.128Z,61.83
2022-08-08T10:31:00.556Z,61.83
2022-08-08T10:40:45.171Z,62.02
2022-08-08T10:50:44.514Z,58.77
2022-08-08T11:00:52.548Z,54.10
2022-08-08T11:10:45.755Z,54.86
2022-08-08T11:20:52.413Z,54.31
2022-08-08T11:30:50.587Z,54.66
2022-08-08T11:40:49.818Z,49.18
2022-08-08T11:50:47.795Z,50.54
2022-08-08T12:00:47.071Z,51.30
2022-08-08T12:10:47.615Z,51.47
2022-08-08T12:20:45.957Z,49.06
2022-08-08T12:30:47.761Z,48.96
2022-08-08T12:40:56.796Z,51.30
2022-08-08T12:50:47.381Z,47.34
2022-08-08T13:00:46.590Z,46.89
2022-08-08T13:10:56.383Z,46.57
2022-08-08T13:20:48.355Z,46.47
2022-08-08T13:30:47.209Z,46.79
2022-08-08T13:40:47.341Z,44.70
2022-08-08T13:50:50.877Z,47.78
2022-08-08T14:00:48.685Z,44.66
2022-08-08T14:10:48.014Z,44.88
2022-08-08T14:20:56.609Z,46.50
2022-08-08T14:30:50.153Z,46.01
2022-08-08T14:40:48.638Z,44.56
2022-08-08T14:50:48.686Z,44.19
2022-08-08T15:00:49.127Z,42.81
2022-08-08T15:10:49.074Z,44.31
2022-08-08T15:20:49.436Z,43.23
2022-08-08T15:30:50.885Z,44.72
2022-08-08T15:40:49.789Z,45.34
2022-08-08T15:50:50.038Z,44.47
2022-08-08T16:00:50.854Z,46.62
2022-08-08T16:13:27.361Z,44.07
2022-08-08T16:20:51.643Z,45.43
2022-08-08T16:30:50.977Z,45.18
2022-08-08T16:40:51.067Z,47.99
2022-08-08T16:50:51.223Z,48.88
2022-08-08T17:00:51.492Z,49.71
2022-08-08T17:10:57.590Z,50.73
2022-08-08T17:20:52.738Z,51.94
2022-08-08T17:30:52.033Z,52.98
2022-08-08T17:40:52.092Z,53.19
2022-08-08T17:50:54.559Z,55.02
2022-08-08T18:00:56.051Z,55.12
2022-08-08T18:10:53.673Z,56.04
2022-08-08T18:20:59.223Z,56.27
2022-08-08T18:30:54.076Z,57.02
2022-08-08T18:40:54.154Z,57.15
2022-08-08T18:50:58.683Z,57.94
2022-08-08T19:00:54.734Z,58.37
2022-08-08T19:10:54.465Z,59.19
2022-08-08T19:20:54.151Z,59.52
2022-08-08T19:31:04.004Z,59.95
2022-08-08T19:40:56.348Z,62.27
2022-08-08T19:50:54.901Z,62.40
2022-08-08T20:00:56.790Z,62.34
2022-08-08T20:10:55.153Z,64.00
2022-08-08T20:20:55.201Z,65.52
2022-08-08T20:30:56.446Z,65.55
2022-08-08T20:40:55.530Z,64.95
2022-08-08T20:50:55.838Z,65.99
2022-08-08T21:00:55.854Z,67.82
2022-08-08T21:10:56.180Z,69.73
2022-08-08T21:20:56.196Z,70.46
2022-08-08T21:30:56.547Z,70.63
2022-08-08T21:40:57.189Z,71.16
2022-08-08T21:50:58.169Z,69.92
2022-08-08T22:00:57.094Z,66.65
2022-08-08T22:10:57.438Z,65.92
2022-08-08T22:20:57.503Z,67.79
2022-08-08T22:30:57.674Z,70.46
2022-08-08T22:40:57.787Z,73.07
2022-08-08T22:50:58.126Z,73.68
2022-08-08T23:01:00.198Z,74.01
2022-08-08T23:11:06.241Z,73.91
2022-08-08T23:20:59.459Z,75.35
2022-08-08T23:30:58.717Z,77.04
2022-08-08T23:40:58.848Z,76.80
2022-08-08T23:50:59.188Z,76.50
